Terminal Aerodrome Forecast
Issued by NWS King Salmon, AK

Current Version | Previous Version | Text Only | Print | Product List | Glossary On
Versions: 1 2 3 4 5 6 7 8 9 10 11 12 13 14 15 16 17 18 19 20 21 22 23 24 25 26 27 28 29 30 31 32 33 34
000
FTAK31 PANC 141736
TAFAKN
TAF
PAKN 141736Z 1418/1518 VRB06KT P6SM VCFG FEW002 SCT040 SCT250
     FM151100 10014G22KT P6SM FEW005 SCT020 BKN080
     FM151300 11018G26KT P6SM -RASN SCT003 SCT010 OVC020=

USA.gov is the U.S. government's official web portal to all federal, state and local government web resources and services.